createdAt,value
2023-05-04T00:02:20.207Z,6.30
2023-05-04T00:04:47.226Z,6.40
2023-05-04T00:07:13.868Z,6.20
2023-05-04T00:09:40.472Z,6.30
2023-05-04T00:12:07.941Z,6.30
2023-05-04T00:14:34.980Z,6.30
2023-05-04T00:17:04.776Z,6.30
2023-05-04T00:19:31.414Z,6.20
2023-05-04T00:21:58.039Z,6.10
2023-05-04T00:24:24.632Z,6.30
2023-05-04T00:26:51.225Z,6.20
2023-05-04T00:29:17.855Z,6.10
2023-05-04T00:31:44.526Z,6.20
2023-05-04T00:34:11.838Z,6.00
2023-05-04T00:36:38.550Z,6.00
2023-05-04T00:39:05.805Z,6.10
2023-05-04T00:41:32.432Z,6.10
2023-05-04T00:43:59.703Z,6.10
2023-05-04T00:46:26.946Z,6.10
2023-05-04T00:48:54.182Z,6.00
2023-05-04T00:51:23.162Z,6.00
2023-05-04T00:53:50.565Z,5.90
2023-05-04T00:56:18.831Z,5.80
2023-05-04T00:58:45.974Z,5.70
2023-05-04T01:01:12.973Z,5.70
2023-05-04T01:03:40.013Z,5.80
2023-05-04T01:06:18.403Z,5.80
2023-05-04T01:08:57.725Z,5.80
2023-05-04T01:11:35.035Z,5.80
2023-05-04T01:14:02.088Z,5.90
2023-05-04T01:16:29.652Z,5.90
2023-05-04T01:18:56.445Z,5.90
2023-05-04T01:21:23.035Z,6.00
2023-05-04T01:23:50.451Z,6.00
2023-05-04T01:26:27.240Z,6.10
2023-05-04T01:29:02.416Z,6.10
2023-05-04T01:31:29.966Z,6.10
2023-05-04T01:33:57.433Z,6.10
2023-05-04T01:36:24.479Z,6.10
2023-05-04T01:38:55.262Z,6.00
2023-05-04T01:41:21.935Z,6.00
2023-05-04T01:43:48.833Z,6.10
2023-05-04T01:46:16.028Z,6.30
2023-05-04T01:48:42.864Z,6.40
2023-05-04T01:51:09.496Z,6.50
2023-05-04T01:53:36.234Z,6.60
2023-05-04T01:56:03.107Z,6.70
2023-05-04T01:58:29.849Z,6.70
2023-05-04T02:00:59.040Z,6.70
2023-05-04T02:03:26.251Z,6.70
2023-05-04T02:05:53.541Z,6.60
2023-05-04T02:08:20.282Z,6.60
2023-05-04T02:10:47.822Z,6.60
2023-05-04T02:13:14.602Z,6.70
2023-05-04T02:15:41.445Z,6.70
2023-05-04T02:18:08.380Z,6.60
2023-05-04T02:20:35.302Z,6.60
2023-05-04T02:23:03.041Z,6.70
2023-05-04T02:25:30.470Z,6.80
2023-05-04T02:27:57.042Z,6.60
2023-05-04T02:30:23.758Z,6.40
2023-05-04T02:32:50.550Z,6.10
2023-05-04T02:35:17.194Z,5.90
2023-05-04T02:37:44.330Z,5.80
2023-05-04T02:40:11.679Z,5.60
2023-05-04T02:42:38.265Z,5.50
2023-05-04T02:45:07.314Z,5.40
2023-05-04T02:47:33.987Z,5.40
2023-05-04T02:50:01.332Z,5.30
2023-05-04T02:52:28.096Z,5.30
2023-05-04T02:54:54.801Z,5.30
2023-05-04T02:57:21.510Z,5.30
2023-05-04T02:59:48.097Z,5.30
2023-05-04T03:02:14.747Z,5.20
2023-05-04T03:04:41.502Z,5.00
2023-05-04T03:07:09.333Z,5.00
2023-05-04T03:09:36.205Z,4.90
2023-05-04T03:12:04.225Z,4.80
2023-05-04T03:14:31.467Z,4.70
2023-05-04T03:16:58.550Z,4.70
2023-05-04T03:19:25.997Z,4.70
2023-05-04T03:21:52.680Z,4.60
2023-05-04T03:24:19.423Z,4.50
2023-05-04T03:26:47.596Z,4.50
2023-05-04T03:29:14.721Z,4.40
2023-05-04T03:31:41.797Z,4.50
2023-05-04T03:34:12.565Z,4.60
2023-05-04T03:36:39.194Z,4.50
2023-05-04T03:39:05.880Z,4.50
2023-05-04T03:41:32.524Z,4.50
2023-05-04T03:43:59.431Z,4.60
2023-05-04T03:46:30.019Z,4.60
2023-05-04T03:48:57.355Z,4.70
2023-05-04T03:51:25.006Z,4.60
2023-05-04T03:53:51.639Z,4.70
2023-05-04T03:56:18.640Z,4.70
2023-05-04T03:58:46.249Z,4.90
2023-05-04T04:01:14.753Z,5.00
2023-05-04T04:03:41.521Z,5.00
2023-05-04T04:06:09.620Z,5.00
2023-05-04T04:08:37.374Z,4.90
2023-05-04T04:11:04.036Z,4.90
2023-05-04T04:13:30.713Z,4.90
2023-05-04T04:15:57.379Z,4.90
2023-05-04T04:18:24.514Z,5.00
2023-05-04T04:20:51.592Z,4.90
2023-05-04T04:23:19.176Z,4.90
2023-05-04T04:25:46.661Z,4.90
2023-05-04T04:28:16.905Z,5.00
2023-05-04T04:30:43.594Z,4.90
2023-05-04T04:33:10.429Z,5.00
2023-05-04T04:35:37.266Z,5.00
2023-05-04T04:38:04.188Z,5.10
2023-05-04T04:40:31.075Z,5.20
2023-05-04T04:42:57.713Z,5.30
2023-05-04T04:45:24.585Z,5.40
2023-05-04T04:48:00.892Z,5.50
2023-05-04T04:50:28.973Z,5.80
2023-05-04T04:52:55.984Z,5.90
2023-05-04T04:55:25.659Z,6.10
2023-05-04T04:57:52.880Z,6.30
2023-05-04T05:00:19.645Z,6.40
2023-05-04T05:02:46.333Z,6.60
2023-05-04T05:05:13.060Z,6.70
2023-05-04T05:07:39.717Z,6.80
2023-05-04T05:10:08.354Z,7.00
2023-05-04T05:12:35.193Z,7.20
2023-05-04T05:15:04.184Z,7.20
2023-05-04T05:17:31.289Z,7.40
2023-05-04T05:19:57.940Z,7.50
2023-05-04T05:22:24.928Z,7.50
2023-05-04T05:24:51.733Z,7.60
2023-05-04T05:27:18.514Z,7.70
2023-05-04T05:29:45.505Z,7.80
2023-05-04T05:32:12.187Z,7.80
2023-05-04T05:34:38.990Z,7.90
2023-05-04T05:37:05.731Z,7.90
2023-05-04T05:39:32.344Z,7.90
2023-05-04T05:41:59.176Z,8.10
2023-05-04T05:44:25.761Z,8.10
2023-05-04T05:46:52.371Z,8.20
2023-05-04T05:49:19.372Z,8.30
2023-05-04T05:51:46.042Z,8.30
2023-05-04T05:54:12.756Z,8.30
2023-05-04T05:56:39.415Z,8.30
2023-05-04T05:59:06.308Z,8.30
2023-05-04T06:01:33.308Z,8.30
2023-05-04T06:04:00.333Z,8.40
2023-05-04T06:06:27.185Z,8.50
2023-05-04T06:08:53.867Z,8.60
2023-05-04T06:11:21.364Z,8.60
2023-05-04T06:13:47.983Z,8.70
2023-05-04T06:16:14.733Z,8.80
2023-05-04T06:18:41.493Z,8.80
2023-05-04T06:21:08.726Z,8.90
2023-05-04T06:23:35.401Z,9.20
2023-05-04T06:26:02.570Z,9.30
2023-05-04T06:28:29.181Z,9.40
2023-05-04T06:30:55.796Z,9.40
2023-05-04T06:33:22.751Z,9.40
2023-05-04T06:35:49.460Z,9.50
2023-05-04T06:38:16.072Z,9.50
2023-05-04T06:40:42.808Z,9.60
2023-05-04T06:43:09.737Z,9.50
2023-05-04T06:45:36.765Z,9.40
2023-05-04T06:48:04.083Z,9.50
2023-05-04T06:50:31.496Z,9.50
2023-05-04T06:53:09.753Z,9.70
2023-05-04T06:55:42.591Z,9.80
2023-05-04T06:58:09.204Z,9.70
2023-05-04T07:00:36.088Z,9.70
2023-05-04T07:03:02.834Z,9.80
2023-05-04T07:05:29.628Z,10.10
2023-05-04T07:07:58.667Z,10.40
2023-05-04T07:10:25.393Z,10.50
2023-05-04T07:12:52.021Z,10.70
2023-05-04T07:15:18.736Z,10.90
2023-05-04T07:17:46.699Z,11.20
2023-05-04T07:20:15.273Z,11.20
2023-05-04T07:22:41.966Z,11.50
2023-05-04T07:25:08.917Z,11.70
2023-05-04T07:27:35.767Z,12.10
2023-05-04T07:30:03.438Z,12.40
2023-05-04T07:32:30.181Z,12.70
2023-05-04T07:34:56.792Z,12.80
2023-05-04T07:37:23.496Z,12.80
2023-05-04T07:39:50.160Z,12.70
2023-05-04T07:42:16.763Z,12.80
2023-05-04T07:44:43.443Z,12.90
2023-05-04T07:47:10.576Z,13.00
2023-05-04T07:49:37.208Z,13.00
2023-05-04T07:52:04.635Z,13.20
2023-05-04T07:54:31.360Z,13.10
2023-05-04T07:56:57.994Z,13.30
2023-05-04T07:59:24.755Z,13.50
2023-05-04T08:01:51.511Z,13.70
2023-05-04T08:04:18.156Z,13.60
2023-05-04T08:06:45.323Z,13.60
2023-05-04T08:09:12.389Z,13.50
2023-05-04T08:11:42.260Z,13.60
2023-05-04T08:14:09.002Z,13.80
2023-05-04T08:16:36.107Z,14.20
2023-05-04T08:19:02.836Z,14.30
2023-05-04T08:21:29.498Z,14.20
2023-05-04T08:23:56.109Z,14.20
2023-05-04T08:26:23.574Z,14.50
2023-05-04T08:28:50.437Z,14.70
2023-05-04T08:31:18.491Z,14.40
2023-05-04T08:33:48.439Z,14.70
2023-05-04T08:36:15.465Z,15.20
2023-05-04T08:38:42.292Z,15.60
2023-05-04T08:41:10.870Z,15.60
2023-05-04T08:43:37.468Z,15.60
2023-05-04T08:46:05.900Z,15.40
2023-05-04T08:48:35.519Z,15.10
2023-05-04T08:51:04.171Z,15.00
2023-05-04T08:53:32.525Z,15.10
2023-05-04T08:56:04.031Z,15.20
2023-05-04T08:58:31.945Z,15.20
2023-05-04T09:01:01.053Z,15.50
2023-05-04T09:03:29.641Z,15.30
2023-05-04T09:05:57.730Z,15.00
2023-05-04T09:08:24.525Z,15.00
2023-05-04T09:10:51.336Z,15.40
2023-05-04T09:13:18.177Z,15.50
2023-05-04T09:15:57.282Z,15.50
2023-05-04T09:18:24.390Z,15.90
2023-05-04T09:20:51.140Z,16.20
2023-05-04T09:23:18.314Z,15.80
2023-05-04T09:25:52.905Z,15.70
2023-05-04T09:28:33.285Z,15.80
2023-05-04T09:31:01.083Z,15.50
2023-05-04T09:33:28.841Z,15.60
2023-05-04T09:35:57.120Z,15.90
2023-05-04T09:38:28.284Z,16.20
2023-05-04T09:40:55.823Z,16.00
2023-05-04T09:43:24.252Z,15.90
2023-05-04T09:45:51.403Z,16.10
2023-05-04T09:48:25.674Z,16.40
2023-05-04T09:51:00.684Z,16.40
2023-05-04T09:53:29.453Z,16.30
2023-05-04T09:56:00.697Z,16.30
2023-05-04T09:58:30.631Z,16.50
2023-05-04T10:01:00.766Z,16.30
2023-05-04T10:03:28.117Z,16.30
2023-05-04T10:05:54.996Z,16.30
2023-05-04T10:08:23.460Z,16.30
2023-05-04T10:10:51.200Z,16.20
2023-05-04T10:13:18.038Z,16.20
2023-05-04T10:16:06.562Z,16.60
2023-05-04T10:19:10.597Z,16.70
2023-05-04T10:21:55.733Z,16.50
2023-05-04T10:24:45.427Z,16.90
2023-05-04T10:27:15.556Z,17.00
2023-05-04T10:29:42.934Z,17.20
2023-05-04T10:32:22.889Z,17.10
2023-05-04T10:34:50.869Z,16.80
2023-05-04T10:37:22.097Z,17.00
2023-05-04T10:39:55.975Z,17.20
2023-05-04T10:42:22.779Z,17.70
2023-05-04T10:44:54.936Z,17.90
2023-05-04T10:47:35.513Z,18.00
2023-05-04T10:50:15.226Z,17.90
2023-05-04T10:52:50.231Z,17.40
2023-05-04T10:55:17.244Z,17.40
2023-05-04T10:57:51.718Z,17.30
2023-05-04T11:00:19.734Z,17.20
2023-05-04T11:02:47.585Z,17.40
2023-05-04T11:05:19.827Z,17.50
2023-05-04T11:07:50.528Z,17.70
2023-05-04T11:10:26.603Z,17.60
2023-05-04T11:12:55.368Z,17.70
2023-05-04T11:15:22.285Z,17.80
2023-05-04T11:17:52.860Z,17.70
2023-05-04T11:20:24.361Z,17.60
2023-05-04T11:22:51.772Z,17.50
2023-05-04T11:25:30.114Z,17.80
2023-05-04T11:27:58.886Z,18.00
2023-05-04T11:30:33.614Z,17.70
2023-05-04T11:33:01.424Z,17.90
2023-05-04T11:35:28.339Z,18.30
2023-05-04T11:37:56.419Z,18.30
2023-05-04T11:40:25.218Z,18.30
2023-05-04T11:42:55.372Z,18.30
2023-05-04T11:45:28.367Z,18.10
2023-05-04T11:47:56.558Z,18.10
2023-05-04T11:50:25.055Z,18.40
2023-05-04T11:52:51.864Z,18.50
2023-05-04T11:55:30.235Z,18.60
2023-05-04T11:58:01.315Z,18.50
2023-05-04T12:00:43.022Z,18.40
2023-05-04T12:03:29.960Z,18.00
2023-05-04T12:06:02.905Z,18.20
2023-05-04T12:08:34.937Z,18.20
2023-05-04T12:11:16.324Z,18.10
2023-05-04T12:13:47.338Z,18.30
2023-05-04T12:16:15.965Z,18.10
2023-05-04T12:18:44.150Z,18.40
2023-05-04T12:21:14.989Z,18.30
2023-05-04T12:23:42.298Z,18.30
2023-05-04T12:26:10.434Z,18.30
2023-05-04T12:28:38.053Z,18.30
2023-05-04T12:31:06.810Z,18.30
2023-05-04T12:33:34.803Z,18.50
2023-05-04T12:36:02.237Z,18.80
2023-05-04T12:38:29.438Z,19.10
2023-05-04T12:41:03.118Z,19.20
2023-05-04T12:43:30.967Z,19.20
2023-05-04T12:45:57.703Z,19.00
2023-05-04T12:48:26.478Z,18.90
2023-05-04T12:50:53.176Z,18.90
2023-05-04T12:53:22.141Z,18.60
2023-05-04T12:55:48.853Z,18.60
2023-05-04T12:58:15.476Z,18.80
2023-05-04T13:00:45.749Z,19.00
2023-05-04T13:03:13.196Z,19.30
2023-05-04T13:05:40.214Z,19.50
2023-05-04T13:08:07.231Z,19.60
2023-05-04T13:10:33.912Z,19.50
2023-05-04T13:13:00.933Z,19.50
2023-05-04T13:15:27.991Z,19.80
2023-05-04T13:17:55.017Z,19.90
2023-05-04T13:20:22.507Z,19.80
2023-05-04T13:22:50.416Z,19.50
2023-05-04T13:25:17.050Z,19.50
2023-05-04T13:27:43.845Z,19.70
2023-05-04T13:30:11.363Z,19.80
2023-05-04T13:32:38.061Z,19.60
2023-05-04T13:35:05.372Z,19.60
2023-05-04T13:37:32.080Z,19.60
2023-05-04T13:39:59.421Z,19.80
2023-05-04T13:42:26.115Z,19.90
2023-05-04T13:44:52.846Z,19.90
2023-05-04T13:47:19.430Z,19.80
2023-05-04T13:49:46.500Z,19.90
2023-05-04T13:52:13.437Z,20.00
2023-05-04T13:54:40.120Z,20.00
2023-05-04T13:57:07.161Z,19.60
2023-05-04T13:59:34.092Z,19.60
2023-05-04T14:02:01.226Z,19.80
2023-05-04T14:04:27.993Z,19.90
2023-05-04T14:06:54.881Z,20.00
2023-05-04T14:09:21.805Z,20.30
2023-05-04T14:11:48.434Z,20.40
2023-05-04T14:14:15.173Z,20.60
2023-05-04T14:16:41.882Z,20.40
2023-05-04T14:19:08.549Z,20.10
2023-05-04T14:21:35.860Z,19.80
2023-05-04T14:24:03.315Z,19.70
2023-05-04T14:26:31.695Z,19.80
2023-05-04T14:28:58.884Z,20.00
2023-05-04T14:31:25.582Z,20.20
2023-05-04T14:33:53.305Z,20.20
2023-05-04T14:36:21.312Z,20.30
2023-05-04T14:38:48.121Z,20.50
2023-05-04T14:41:15.226Z,20.60
2023-05-04T14:43:42.148Z,20.40
2023-05-04T14:46:09.392Z,20.50
2023-05-04T14:48:36.187Z,20.60
2023-05-04T14:51:03.395Z,20.30
2023-05-04T14:53:33.962Z,20.40
2023-05-04T14:56:01.484Z,20.80
2023-05-04T14:58:28.778Z,20.70
2023-05-04T15:00:55.448Z,20.60
2023-05-04T15:03:22.342Z,20.50
2023-05-04T15:05:49.239Z,20.50
2023-05-04T15:08:15.900Z,20.40
2023-05-04T15:10:42.521Z,20.50
2023-05-04T15:13:09.243Z,20.60
2023-05-04T15:15:39.853Z,20.70
2023-05-04T15:18:06.741Z,20.60
2023-05-04T15:20:35.727Z,20.70
2023-05-04T15:23:04.914Z,20.70
2023-05-04T15:25:31.529Z,20.50
2023-05-04T15:27:58.111Z,20.60
2023-05-04T15:30:24.724Z,20.50
2023-05-04T15:32:51.525Z,20.30
2023-05-04T15:35:18.550Z,20.20
2023-05-04T15:37:45.232Z,20.40
2023-05-04T15:40:12.724Z,20.70
2023-05-04T15:42:39.364Z,20.70
2023-05-04T15:45:08.127Z,20.50
2023-05-04T15:47:35.448Z,20.10
2023-05-04T15:50:02.879Z,20.20
2023-05-04T15:52:31.332Z,20.20
2023-05-04T15:55:04.254Z,20.10
2023-05-04T15:57:39.492Z,20.20
2023-05-04T16:00:07.311Z,20.20
2023-05-04T16:02:34.717Z,20.10
2023-05-04T16:05:01.477Z,20.00
2023-05-04T16:07:28.096Z,19.90
2023-05-04T16:09:54.969Z,20.00
2023-05-04T16:12:21.918Z,20.00
2023-05-04T16:14:48.673Z,20.00
2023-05-04T16:17:16.357Z,19.80
2023-05-04T16:19:43.382Z,19.80
2023-05-04T16:22:10.188Z,19.90
2023-05-04T16:24:36.761Z,19.90
2023-05-04T16:27:03.572Z,19.80
2023-05-04T16:29:30.243Z,19.90
2023-05-04T16:31:56.919Z,19.80
2023-05-04T16:34:23.509Z,19.80
2023-05-04T16:36:50.293Z,19.70
2023-05-04T16:39:18.988Z,19.60
2023-05-04T16:41:48.147Z,19.70
2023-05-04T16:44:15.194Z,19.70
2023-05-04T16:46:41.926Z,19.80
2023-05-04T16:49:10.462Z,19.80
2023-05-04T16:51:40.385Z,19.80
2023-05-04T16:54:07.013Z,19.70
2023-05-04T16:56:34.201Z,19.60
2023-05-04T16:59:00.928Z,19.50
2023-05-04T17:01:27.587Z,19.50
2023-05-04T17:03:54.521Z,19.50
2023-05-04T17:06:21.352Z,19.60
2023-05-04T17:08:48.005Z,19.50
2023-05-04T17:11:14.665Z,19.60
2023-05-04T17:13:41.406Z,19.60
2023-05-04T17:16:09.751Z,19.60
2023-05-04T17:18:36.708Z,19.50
2023-05-04T17:21:03.413Z,19.40
2023-05-04T17:23:30.089Z,19.20
2023-05-04T17:25:56.907Z,19.10
2023-05-04T17:28:23.705Z,19.00
2023-05-04T17:30:50.399Z,18.80
2023-05-04T17:33:17.134Z,18.70
2023-05-04T17:35:43.778Z,18.60
2023-05-04T17:38:10.910Z,18.60
2023-05-04T17:40:37.759Z,18.50
2023-05-04T17:43:04.391Z,18.50
2023-05-04T17:45:31.028Z,18.40
2023-05-04T17:47:57.730Z,18.30
2023-05-04T17:50:25.415Z,18.30
2023-05-04T17:52:55.976Z,18.30
2023-05-04T17:55:25.627Z,18.10
2023-05-04T17:57:54.136Z,18.10
2023-05-04T18:00:21.242Z,18.00
2023-05-04T18:02:47.989Z,18.00
2023-05-04T18:05:14.780Z,17.90
2023-05-04T18:07:41.398Z,17.80
2023-05-04T18:10:08.486Z,17.70
2023-05-04T18:12:38.026Z,17.70
2023-05-04T18:15:08.809Z,17.60
2023-05-04T18:17:37.769Z,17.40
2023-05-04T18:20:07.235Z,17.40
2023-05-04T18:22:34.346Z,17.30
2023-05-04T18:25:01.399Z,17.30
2023-05-04T18:27:34.762Z,17.20
2023-05-04T18:30:03.016Z,17.10
2023-05-04T18:32:29.824Z,17.10
2023-05-04T18:34:57.855Z,17.00
2023-05-04T18:37:25.502Z,16.90
2023-05-04T18:39:52.495Z,17.00
2023-05-04T18:42:19.156Z,16.90
2023-05-04T18:44:45.866Z,16.80
2023-05-04T18:47:12.743Z,16.80
2023-05-04T18:49:39.462Z,16.70
2023-05-04T18:52:06.103Z,16.60
2023-05-04T18:54:33.077Z,16.60
2023-05-04T18:56:59.733Z,16.60
2023-05-04T18:59:26.835Z,16.60
2023-05-04T19:01:56.217Z,16.50
2023-05-04T19:04:22.837Z,16.50
2023-05-04T19:06:51.668Z,16.40
2023-05-04T19:09:18.668Z,16.40
2023-05-04T19:11:46.601Z,16.30
2023-05-04T19:14:13.506Z,16.20
2023-05-04T19:16:40.459Z,16.20
2023-05-04T19:19:07.429Z,16.10
2023-05-04T19:21:34.162Z,16.10
2023-05-04T19:24:00.911Z,16.10
2023-05-04T19:26:28.259Z,16.10
2023-05-04T19:28:54.916Z,16.00
2023-05-04T19:31:21.537Z,16.00
2023-05-04T19:33:49.425Z,15.90
2023-05-04T19:36:16.905Z,15.90
2023-05-04T19:38:43.797Z,16.00
2023-05-04T19:41:10.500Z,15.90
2023-05-04T19:43:38.652Z,15.90
2023-05-04T19:46:05.421Z,15.80
2023-05-04T19:48:32.725Z,15.70
2023-05-04T19:50:59.453Z,15.70
2023-05-04T19:53:26.135Z,15.70
2023-05-04T19:55:52.873Z,15.60
2023-05-04T19:58:20.087Z,15.60
2023-05-04T20:00:47.395Z,15.50
2023-05-04T20:03:14.093Z,15.50
2023-05-04T20:05:40.785Z,15.50
2023-05-04T20:08:07.392Z,15.40
2023-05-04T20:10:34.085Z,15.50
2023-05-04T20:13:01.155Z,15.50
2023-05-04T20:15:28.097Z,15.30
2023-05-04T20:17:54.787Z,15.20
2023-05-04T20:20:22.480Z,15.20
2023-05-04T20:22:51.970Z,15.30
2023-05-04T20:25:19.703Z,15.20
2023-05-04T20:27:48.302Z,15.20
2023-05-04T20:30:15.219Z,15.10
2023-05-04T20:32:42.615Z,15.10
2023-05-04T20:35:09.569Z,15.10
2023-05-04T20:37:36.367Z,15.10
2023-05-04T20:40:03.043Z,15.00
2023-05-04T20:42:29.831Z,15.00
2023-05-04T20:44:56.409Z,15.00
2023-05-04T20:47:23.180Z,15.00
2023-05-04T20:49:49.879Z,15.00
2023-05-04T20:52:16.517Z,14.80
2023-05-04T20:54:43.171Z,14.70
2023-05-04T20:57:09.891Z,14.70
2023-05-04T20:59:36.623Z,14.60
2023-05-04T21:02:03.350Z,14.50
2023-05-04T21:04:30.081Z,14.40
2023-05-04T21:06:57.481Z,14.30
2023-05-04T21:09:24.374Z,14.10
2023-05-04T21:11:51.006Z,14.00
2023-05-04T21:14:17.601Z,14.00
2023-05-04T21:16:44.307Z,14.10
2023-05-04T21:19:10.934Z,14.10
2023-05-04T21:21:40.703Z,14.10
2023-05-04T21:24:13.782Z,14.10
2023-05-04T21:26:41.151Z,14.00
2023-05-04T21:29:14.954Z,13.90
2023-05-04T21:31:42.010Z,13.70
2023-05-04T21:34:08.906Z,13.70
2023-05-04T21:36:35.807Z,13.60
2023-05-04T21:39:02.444Z,13.60
2023-05-04T21:41:29.976Z,13.50
2023-05-04T21:43:56.672Z,13.40
2023-05-04T21:46:23.378Z,13.20
2023-05-04T21:48:51.616Z,13.30
2023-05-04T21:51:20.677Z,13.30
2023-05-04T21:53:47.834Z,13.20
2023-05-04T21:56:14.514Z,13.10
2023-05-04T21:58:41.843Z,13.10
2023-05-04T22:01:09.307Z,13.20
2023-05-04T22:03:36.908Z,13.10
2023-05-04T22:06:03.940Z,13.10
2023-05-04T22:08:30.635Z,13.00
2023-05-04T22:10:58.485Z,13.10
2023-05-04T22:13:25.740Z,13.20
2023-05-04T22:15:53.326Z,13.10
2023-05-04T22:18:20.568Z,13.20
2023-05-04T22:20:47.553Z,13.30
2023-05-04T22:23:14.678Z,13.20
2023-05-04T22:25:41.627Z,13.20
2023-05-04T22:28:08.254Z,13.20
2023-05-04T22:30:34.964Z,13.20
2023-05-04T22:33:01.905Z,13.30
2023-05-04T22:35:31.098Z,13.30
2023-05-04T22:37:57.811Z,13.30
2023-05-04T22:40:24.624Z,13.20
2023-05-04T22:42:51.346Z,13.10
2023-05-04T22:45:18.081Z,13.00
2023-05-04T22:47:46.158Z,13.00
2023-05-04T22:50:13.500Z,13.00
2023-05-04T22:52:41.261Z,13.00
2023-05-04T22:55:08.796Z,13.00
2023-05-04T22:57:35.831Z,12.90
2023-05-04T23:00:04.717Z,12.90
2023-05-04T23:02:31.473Z,12.80
2023-05-04T23:04:58.179Z,12.70
2023-05-04T23:07:25.057Z,12.80
2023-05-04T23:09:51.740Z,12.60
2023-05-04T23:12:18.451Z,12.70
2023-05-04T23:14:45.043Z,12.70
2023-05-04T23:17:11.678Z,12.70
2023-05-04T23:19:38.270Z,12.60
2023-05-04T23:22:04.871Z,12.50
2023-05-04T23:24:31.972Z,12.50
2023-05-04T23:26:59.045Z,12.50
2023-05-04T23:29:25.753Z,12.60
2023-05-04T23:31:53.486Z,12.60
2023-05-04T23:34:20.317Z,12.50
2023-05-04T23:36:46.911Z,12.30
2023-05-04T23:39:13.559Z,12.40
2023-05-04T23:41:40.174Z,12.40
2023-05-04T23:44:07.063Z,12.40
2023-05-04T23:46:33.665Z,12.30
2023-05-04T23:49:00.292Z,12.30
2023-05-04T23:51:28.386Z,12.30
2023-05-04T23:53:55.604Z,12.30
2023-05-04T23:56:22.484Z,12.10
2023-05-04T23:58:49.137Z,12.10
